Aviation Digital Data Service (ADDS)

Output produced by METARs form (1237 UTC 25 June 2019)
found at http://www.aviationweather.gov/metar/data/
 
Forecast for: EKRK (COPENHAGEN/ROSKI, DK)
Text: TAF EKRK 251126Z 2512/2521 12010KT CAVOK
Forecast period: 1200 to 2100 UTC 25 June 2019
Forecast type: FROM: standard forecast or significant change
Winds: from the ESE (120 degrees) at 12 MPH (10 knots; 5.1 m/s)
Visibility: 6 or more miles 10+ km)
Ceiling: unknown
Clouds: missing
Weather: NSW  (no significant weather)